sensor_id;sensor_type;location;lat;lon;timestamp;P1;P2;P0
57049;PMS7003;42935;50.966;16.992;2023-05-07T00:00:32;21;18;13
57049;PMS7003;42935;50.966;16.992;2023-05-07T00:03:51;19;18;13
57049;PMS7003;42935;50.966;16.992;2023-05-07T00:07:12;17;14;11
57049;PMS7003;42935;50.966;16.992;2023-05-07T00:10:37;20;19;13
57049;PMS7003;42935;50.966;16.992;2023-05-07T00:14:02;20;18;12
57049;PMS7003;42935;50.966;16.992;2023-05-07T00:17:22;24;20;13
57049;PMS7003;42935;50.966;16.992;2023-05-07T00:20:46;20;17;12
57049;PMS7003;42935;50.966;16.992;2023-05-07T00:24:06;19;17;13
57049;PMS7003;42935;50.966;16.992;2023-05-07T00:27:25;19;16;12
57049;PMS7003;42935;50.966;16.992;2023-05-07T00:30:44;16;14;11
57049;PMS7003;42935;50.966;16.992;2023-05-07T00:34:06;20;16;11
57049;PMS7003;42935;50.966;16.992;2023-05-07T00:37:31;21;18;11
57049;PMS7003;42935;50.966;16.992;2023-05-07T00:40:55;21;19;13
57049;PMS7003;42935;50.966;16.992;2023-05-07T00:44:17;21;18;12
57049;PMS7003;42935;50.966;16.992;2023-05-07T00:47:38;21;17;13
57049;PMS7003;42935;50.966;16.992;2023-05-07T00:50:59;21;17;13
57049;PMS7003;42935;50.966;16.992;2023-05-07T00:54:18;21;18;13
57049;PMS7003;42935;50.966;16.992;2023-05-07T00:57:39;21;17;13
57049;PMS7003;42935;50.966;16.992;2023-05-07T01:01:01;23;20;15
57049;PMS7003;42935;50.966;16.992;2023-05-07T01:04:23;24;21;15
57049;PMS7003;42935;50.966;16.992;2023-05-07T01:07:45;19;18;13
57049;PMS7003;42935;50.966;16.992;2023-05-07T01:11:11;27;23;16
57049;PMS7003;42935;50.966;16.992;2023-05-07T01:14:40;24;22;14
57049;PMS7003;42935;50.966;16.992;2023-05-07T01:18:04;25;22;15
57049;PMS7003;42935;50.966;16.992;2023-05-07T01:21:26;25;24;14
57049;PMS7003;42935;50.966;16.992;2023-05-07T01:24:52;25;21;16
57049;PMS7003;42935;50.966;16.992;2023-05-07T01:28:15;26;20;15
57049;PMS7003;42935;50.966;16.992;2023-05-07T01:31:37;22;19;14
57049;PMS7003;42935;50.966;16.992;2023-05-07T01:35:07;28;24;15
57049;PMS7003;42935;50.966;16.992;2023-05-07T01:38:34;24;18;14
57049;PMS7003;42935;50.966;16.992;2023-05-07T01:41:57;38;30;21
57049;PMS7003;42935;50.966;16.992;2023-05-07T01:45:19;25;23;15
57049;PMS7003;42935;50.966;16.992;2023-05-07T01:48:40;42;34;23
57049;PMS7003;42935;50.966;16.992;2023-05-07T01:52:05;20;17;13
57049;PMS7003;42935;50.966;16.992;2023-05-07T01:55:26;15;13;9
57049;PMS7003;42935;50.966;16.992;2023-05-07T01:58:49;21;17;11
57049;PMS7003;42935;50.966;16.992;2023-05-07T02:02:10;16;14;10
57049;PMS7003;42935;50.966;16.992;2023-05-07T02:05:39;22;20;12
57049;PMS7003;42935;50.966;16.992;2023-05-07T02:08:57;17;15;11
57049;PMS7003;42935;50.966;16.992;2023-05-07T02:12:17;19;18;12
57049;PMS7003;42935;50.966;16.992;2023-05-07T02:15:43;20;18;12
57049;PMS7003;42935;50.966;16.992;2023-05-07T02:19:08;21;17;12
57049;PMS7003;42935;50.966;16.992;2023-05-07T02:22:31;20;15;11
57049;PMS7003;42935;50.966;16.992;2023-05-07T02:25:56;21;19;11
57049;PMS7003;42935;50.966;16.992;2023-05-07T02:29:21;18;15;11
57049;PMS7003;42935;50.966;16.992;2023-05-07T02:32:42;16;14;9
57049;PMS7003;42935;50.966;16.992;2023-05-07T02:36:07;17;13;9
57049;PMS7003;42935;50.966;16.992;2023-05-07T02:39:31;14;13;10
57049;PMS7003;42935;50.966;16.992;2023-05-07T02:43:19;18;16;10
57049;PMS7003;42935;50.966;16.992;2023-05-07T02:46:43;18;16;10
57049;PMS7003;42935;50.966;16.992;2023-05-07T02:50:04;16;14;10
57049;PMS7003;42935;50.966;16.992;2023-05-07T02:53:25;16;14;10
57049;PMS7003;42935;50.966;16.992;2023-05-07T02:56:49;19;14;10
57049;PMS7003;42935;50.966;16.992;2023-05-07T03:00:19;15;13;9
57049;PMS7003;42935;50.966;16.992;2023-05-07T03:03:43;14;13;9
57049;PMS7003;42935;50.966;16.992;2023-05-07T03:07:04;15;13;9
57049;PMS7003;42935;50.966;16.992;2023-05-07T03:10:28;17;14;10
57049;PMS7003;42935;50.966;16.992;2023-05-07T03:13:49;24;19;13
57049;PMS7003;42935;50.966;16.992;2023-05-07T03:17:09;22;18;13
57049;PMS7003;42935;50.966;16.992;2023-05-07T03:20:30;27;21;13
57049;PMS7003;42935;50.966;16.992;2023-05-07T03:24:21;23;19;15
57049;PMS7003;42935;50.966;16.992;2023-05-07T03:27:46;27;24;14
57049;PMS7003;42935;50.966;16.992;2023-05-07T03:31:14;30;26;15
57049;PMS7003;42935;50.966;16.992;2023-05-07T03:34:38;27;21;14
57049;PMS7003;42935;50.966;16.992;2023-05-07T03:38:06;29;21;13
57049;PMS7003;42935;50.966;16.992;2023-05-07T03:41:33;26;21;12
57049;PMS7003;42935;50.966;16.992;2023-05-07T03:44:53;25;22;14
57049;PMS7003;42935;50.966;16.992;2023-05-07T03:48:18;27;19;13
57049;PMS7003;42935;50.966;16.992;2023-05-07T03:51:37;27;21;13
57049;PMS7003;42935;50.966;16.992;2023-05-07T03:55:01;24;21;13
57049;PMS7003;42935;50.966;16.992;2023-05-07T03:58:28;26;23;14
57049;PMS7003;42935;50.966;16.992;2023-05-07T04:01:47;16;12;9
57049;PMS7003;42935;50.966;16.992;2023-05-07T04:05:12;16;14;10
57049;PMS7003;42935;50.966;16.992;2023-05-07T04:08:32;19;17;12
57049;PMS7003;42935;50.966;16.992;2023-05-07T04:11:54;19;16;11
57049;PMS7003;42935;50.966;16.992;2023-05-07T04:15:18;19;18;12
57049;PMS7003;42935;50.966;16.992;2023-05-07T04:19:12;18;16;11
57049;PMS7003;42935;50.966;16.992;2023-05-07T04:22:36;17;13;9
57049;PMS7003;42935;50.966;16.992;2023-05-07T04:25:57;17;16;11
57049;PMS7003;42935;50.966;16.992;2023-05-07T04:29:48;19;16;12
57049;PMS7003;42935;50.966;16.992;2023-05-07T04:33:18;21;18;12
57049;PMS7003;42935;50.966;16.992;2023-05-07T04:36:41;20;17;11
57049;PMS7003;42935;50.966;16.992;2023-05-07T04:40:08;17;15;10
57049;PMS7003;42935;50.966;16.992;2023-05-07T04:43:28;23;15;10
57049;PMS7003;42935;50.966;16.992;2023-05-07T04:46:47;17;16;11
57049;PMS7003;42935;50.966;16.992;2023-05-07T04:50:09;22;17;12
57049;PMS7003;42935;50.966;16.992;2023-05-07T04:53:59;18;15;12
57049;PMS7003;42935;50.966;16.992;2023-05-07T04:57:20;19;15;10
57049;PMS7003;42935;50.966;16.992;2023-05-07T05:00:41;19;14;10
57049;PMS7003;42935;50.966;16.992;2023-05-07T05:04:00;11;10;6
57049;PMS7003;42935;50.966;16.992;2023-05-07T05:07:16;14;8;6
57049;PMS7003;42935;50.966;16.992;2023-05-07T05:10:44;12;11;8
57049;PMS7003;42935;50.966;16.992;2023-05-07T05:14:04;12;9;7
57049;PMS7003;42935;50.966;16.992;2023-05-07T05:17:24;11;9;7
57049;PMS7003;42935;50.966;16.992;2023-05-07T05:20:43;11;9;7
57049;PMS7003;42935;50.966;16.992;2023-05-07T05:24:04;12;10;7
57049;PMS7003;42935;50.966;16.992;2023-05-07T05:27:23;14;12;9
57049;PMS7003;42935;50.966;16.992;2023-05-07T05:31:17;17;14;11
57049;PMS7003;42935;50.966;16.992;2023-05-07T05:34:37;17;14;10
57049;PMS7003;42935;50.966;16.992;2023-05-07T05:37:57;15;13;9
57049;PMS7003;42935;50.966;16.992;2023-05-07T05:41:18;14;13;9
57049;PMS7003;42935;50.966;16.992;2023-05-07T05:44:38;10;8;5
57049;PMS7003;42935;50.966;16.992;2023-05-07T05:47:58;10;9;7
57049;PMS7003;42935;50.966;16.992;2023-05-07T05:51:20;13;9;6
57049;PMS7003;42935;50.966;16.992;2023-05-07T05:54:42;9;7;6
57049;PMS7003;42935;50.966;16.992;2023-05-07T05:58:03;10;7;5
57049;PMS7003;42935;50.966;16.992;2023-05-07T06:01:24;11;10;7
57049;PMS7003;42935;50.966;16.992;2023-05-07T06:04:44;17;11;7
57049;PMS7003;42935;50.966;16.992;2023-05-07T06:08:10;17;14;9
57049;PMS7003;42935;50.966;16.992;2023-05-07T06:11:32;17;13;9
57049;PMS7003;42935;50.966;16.992;2023-05-07T06:14:49;16;13;9
57049;PMS7003;42935;50.966;16.992;2023-05-07T06:18:13;18;15;10
57049;PMS7003;42935;50.966;16.992;2023-05-07T06:21:29;14;12;9
57049;PMS7003;42935;50.966;16.992;2023-05-07T06:24:49;13;12;8
57049;PMS7003;42935;50.966;16.992;2023-05-07T06:28:06;10;9;7
57049;PMS7003;42935;50.966;16.992;2023-05-07T06:31:30;13;10;7
57049;PMS7003;42935;50.966;16.992;2023-05-07T06:34:52;17;12;8
57049;PMS7003;42935;50.966;16.992;2023-05-07T06:38:11;12;10;8
57049;PMS7003;42935;50.966;16.992;2023-05-07T06:41:31;14;11;8
57049;PMS7003;42935;50.966;16.992;2023-05-07T06:45:22;12;10;8
57049;PMS7003;42935;50.966;16.992;2023-05-07T06:48:43;10;8;5
57049;PMS7003;42935;50.966;16.992;2023-05-07T06:52:34;13;11;8
57049;PMS7003;42935;50.966;16.992;2023-05-07T06:55:57;10;9;7
57049;PMS7003;42935;50.966;16.992;2023-05-07T06:59:16;12;10;7
57049;PMS7003;42935;50.966;16.992;2023-05-07T07:02:37;14;12;9
57049;PMS7003;42935;50.966;16.992;2023-05-07T07:05:57;11;8;6
57049;PMS7003;42935;50.966;16.992;2023-05-07T07:09:47;16;14;10
57049;PMS7003;42935;50.966;16.992;2023-05-07T07:13:09;13;9;8
57049;PMS7003;42935;50.966;16.992;2023-05-07T07:16:29;15;12;8
57049;PMS7003;42935;50.966;16.992;2023-05-07T07:19:47;11;9;7
57049;PMS7003;42935;50.966;16.992;2023-05-07T07:23:12;10;10;7
57049;PMS7003;42935;50.966;16.992;2023-05-07T07:27:06;22;20;13
57049;PMS7003;42935;50.966;16.992;2023-05-07T07:30:26;26;21;14
57049;PMS7003;42935;50.966;16.992;2023-05-07T07:33:51;23;19;13
57049;PMS7003;42935;50.966;16.992;2023-05-07T07:37:09;12;9;8
57049;PMS7003;42935;50.966;16.992;2023-05-07T07:40:30;11;7;5
57049;PMS7003;42935;50.966;16.992;2023-05-07T07:43:51;7;6;5
57049;PMS7003;42935;50.966;16.992;2023-05-07T07:47:13;10;9;6
57049;PMS7003;42935;50.966;16.992;2023-05-07T07:50:33;11;9;7
57049;PMS7003;42935;50.966;16.992;2023-05-07T07:53:53;9;7;6
57049;PMS7003;42935;50.966;16.992;2023-05-07T07:57:18;9;7;6
57049;PMS7003;42935;50.966;16.992;2023-05-07T08:01:05;9;7;5
57049;PMS7003;42935;50.966;16.992;2023-05-07T08:04:25;10;8;6
57049;PMS7003;42935;50.966;16.992;2023-05-07T08:07:46;5;5;4
57049;PMS7003;42935;50.966;16.992;2023-05-07T08:11:10;7;6;3
57049;PMS7003;42935;50.966;16.992;2023-05-07T08:14:30;8;5;5
57049;PMS7003;42935;50.966;16.992;2023-05-07T08:17:50;6;6;5
57049;PMS7003;42935;50.966;16.992;2023-05-07T08:21:11;6;6;5
57049;PMS7003;42935;50.966;16.992;2023-05-07T08:24:30;7;5;4
57049;PMS7003;42935;50.966;16.992;2023-05-07T08:27:50;10;6;5
57049;PMS7003;42935;50.966;16.992;2023-05-07T08:31:12;8;7;5
57049;PMS7003;42935;50.966;16.992;2023-05-07T08:34:34;11;11;7
57049;PMS7003;42935;50.966;16.992;2023-05-07T08:37:53;10;8;6
57049;PMS7003;42935;50.966;16.992;2023-05-07T08:41:14;8;8;6
57049;PMS7003;42935;50.966;16.992;2023-05-07T08:45:12;13;12;9
57049;PMS7003;42935;50.966;16.992;2023-05-07T08:49:11;13;13;9
57049;PMS7003;42935;50.966;16.992;2023-05-07T08:53:02;15;13;9
57049;PMS7003;42935;50.966;16.992;2023-05-07T08:56:24;12;10;8
57049;PMS7003;42935;50.966;16.992;2023-05-07T09:00:13;12;9;7
57049;PMS7003;42935;50.966;16.992;2023-05-07T09:04:04;13;12;8
57049;PMS7003;42935;50.966;16.992;2023-05-07T09:07:22;11;10;7
57049;PMS7003;42935;50.966;16.992;2023-05-07T09:11:15;10;9;7
57049;PMS7003;42935;50.966;16.992;2023-05-07T09:14:33;10;8;6
57049;PMS7003;42935;50.966;16.992;2023-05-07T09:18:00;10;10;7
57049;PMS7003;42935;50.966;16.992;2023-05-07T09:21:21;10;8;7
57049;PMS7003;42935;50.966;16.992;2023-05-07T09:25:16;14;12;8
57049;PMS7003;42935;50.966;16.992;2023-05-07T09:28:45;11;10;7
57049;PMS7003;42935;50.966;16.992;2023-05-07T09:32:08;10;7;5
57049;PMS7003;42935;50.966;16.992;2023-05-07T09:35:28;13;10;8
57049;PMS7003;42935;50.966;16.992;2023-05-07T09:39:17;19;17;12
57049;PMS7003;42935;50.966;16.992;2023-05-07T09:42:35;17;16;10
57049;PMS7003;42935;50.966;16.992;2023-05-07T09:45:50;19;16;11
57049;PMS7003;42935;50.966;16.992;2023-05-07T09:49:12;14;13;9
57049;PMS7003;42935;50.966;16.992;2023-05-07T09:52:34;15;13;8
57049;PMS7003;42935;50.966;16.992;2023-05-07T09:55:54;19;14;10
57049;PMS7003;42935;50.966;16.992;2023-05-07T09:59:17;18;13;9
57049;PMS7003;42935;50.966;16.992;2023-05-07T10:02:42;13;12;9
57049;PMS7003;42935;50.966;16.992;2023-05-07T10:06:08;11;10;8
57049;PMS7003;42935;50.966;16.992;2023-05-07T10:09:30;12;11;8
57049;PMS7003;42935;50.966;16.992;2023-05-07T10:12:52;12;11;7
57049;PMS7003;42935;50.966;16.992;2023-05-07T10:16:14;12;11;9
57049;PMS7003;42935;50.966;16.992;2023-05-07T10:19:43;11;11;8
57049;PMS7003;42935;50.966;16.992;2023-05-07T10:23:04;10;9;6
57049;PMS7003;42935;50.966;16.992;2023-05-07T10:26:24;14;11;8
57049;PMS7003;42935;50.966;16.992;2023-05-07T10:33:16;17;15;10
57049;PMS7003;42935;50.966;16.992;2023-05-07T10:36:41;17;14;11
57049;PMS7003;42935;50.966;16.992;2023-05-07T10:40:03;11;10;7
57049;PMS7003;42935;50.966;16.992;2023-05-07T10:47:28;9;8;7
57049;PMS7003;42935;50.966;16.992;2023-05-07T10:50:49;8;7;5
57049;PMS7003;42935;50.966;16.992;2023-05-07T11:09:11;9;8;7
57049;PMS7003;42935;50.966;16.992;2023-05-07T11:16:02;28;22;15
57049;PMS7003;42935;50.966;16.992;2023-05-07T11:19:38;12;10;8
57049;PMS7003;42935;50.966;16.992;2023-05-07T11:22:48;9;8;6
57049;PMS7003;42935;50.966;16.992;2023-05-07T11:26:09;9;8;6
57049;PMS7003;42935;50.966;16.992;2023-05-07T11:29:33;11;9;7
57049;PMS7003;42935;50.966;16.992;2023-05-07T11:32:54;11;9;7
57049;PMS7003;42935;50.966;16.992;2023-05-07T11:36:10;9;8;7
57049;PMS7003;42935;50.966;16.992;2023-05-07T11:39:32;18;16;12
57049;PMS7003;42935;50.966;16.992;2023-05-07T11:43:06;11;11;8
57049;PMS7003;42935;50.966;16.992;2023-05-07T11:46:30;10;9;7
57049;PMS7003;42935;50.966;16.992;2023-05-07T11:49:50;13;12;9
57049;PMS7003;42935;50.966;16.992;2023-05-07T11:53:11;15;12;8
57049;PMS7003;42935;50.966;16.992;2023-05-07T11:56:33;12;10;8
57049;PMS7003;42935;50.966;16.992;2023-05-07T11:59:54;13;10;8
57049;PMS7003;42935;50.966;16.992;2023-05-07T12:03:20;10;8;7
57049;PMS7003;42935;50.966;16.992;2023-05-07T12:06:41;10;9;7
57049;PMS7003;42935;50.966;16.992;2023-05-07T12:10:05;12;10;7
57049;PMS7003;42935;50.966;16.992;2023-05-07T12:13:24;11;9;7
57049;PMS7003;42935;50.966;16.992;2023-05-07T12:16:44;12;11;8
57049;PMS7003;42935;50.966;16.992;2023-05-07T12:20:03;13;10;6
57049;PMS7003;42935;50.966;16.992;2023-05-07T12:23:25;10;9;7
57049;PMS7003;42935;50.966;16.992;2023-05-07T12:26:40;15;13;10
57049;PMS7003;42935;50.966;16.992;2023-05-07T12:29:56;14;13;10
57049;PMS7003;42935;50.966;16.992;2023-05-07T12:33:18;10;10;8
57049;PMS7003;42935;50.966;16.992;2023-05-07T12:36:43;13;10;7
57049;PMS7003;42935;50.966;16.992;2023-05-07T12:40:06;17;13;9
57049;PMS7003;42935;50.966;16.992;2023-05-07T12:43:24;11;9;7
57049;PMS7003;42935;50.966;16.992;2023-05-07T12:46:46;11;9;7
57049;PMS7003;42935;50.966;16.992;2023-05-07T12:50:04;16;13;10
57049;PMS7003;42935;50.966;16.992;2023-05-07T12:53:30;26;20;14
57049;PMS7003;42935;50.966;16.992;2023-05-07T12:56:51;11;11;8
57049;PMS7003;42935;50.966;16.992;2023-05-07T13:00:46;12;10;8
57049;PMS7003;42935;50.966;16.992;2023-05-07T13:04:14;11;11;8
57049;PMS7003;42935;50.966;16.992;2023-05-07T13:07:31;13;10;8
57049;PMS7003;42935;50.966;16.992;2023-05-07T13:10:52;17;16;11
57049;PMS7003;42935;50.966;16.992;2023-05-07T13:14:12;13;12;9
57049;PMS7003;42935;50.966;16.992;2023-05-07T13:17:36;23;17;12
57049;PMS7003;42935;50.966;16.992;2023-05-07T13:20:56;14;12;9
57049;PMS7003;42935;50.966;16.992;2023-05-07T13:24:16;17;16;12
57049;PMS7003;42935;50.966;16.992;2023-05-07T13:27:44;15;12;9
57049;PMS7003;42935;50.966;16.992;2023-05-07T13:31:05;13;12;9
57049;PMS7003;42935;50.966;16.992;2023-05-07T13:34:25;14;13;9
57049;PMS7003;42935;50.966;16.992;2023-05-07T13:37:45;14;11;8
57049;PMS7003;42935;50.966;16.992;2023-05-07T13:41:05;14;12;8
57049;PMS7003;42935;50.966;16.992;2023-05-07T13:44:26;15;13;10
57049;PMS7003;42935;50.966;16.992;2023-05-07T13:47:53;21;18;11
57049;PMS7003;42935;50.966;16.992;2023-05-07T13:51:12;23;17;13
57049;PMS7003;42935;50.966;16.992;2023-05-07T13:54:32;13;11;9
57049;PMS7003;42935;50.966;16.992;2023-05-07T13:57:56;15;14;10
57049;PMS7003;42935;50.966;16.992;2023-05-07T14:01:18;14;13;10
57049;PMS7003;42935;50.966;16.992;2023-05-07T14:04:39;15;14;10
57049;PMS7003;42935;50.966;16.992;2023-05-07T14:07:59;16;15;11
57049;PMS7003;42935;50.966;16.992;2023-05-07T14:11:17;13;12;9
57049;PMS7003;42935;50.966;16.992;2023-05-07T14:14:37;15;14;9
57049;PMS7003;42935;50.966;16.992;2023-05-07T14:17:56;15;13;10
57049;PMS7003;42935;50.966;16.992;2023-05-07T14:21:17;14;13;10
57049;PMS7003;42935;50.966;16.992;2023-05-07T14:24:48;20;16;11
57049;PMS7003;42935;50.966;16.992;2023-05-07T14:28:06;14;13;10
57049;PMS7003;42935;50.966;16.992;2023-05-07T14:31:30;15;14;11
57049;PMS7003;42935;50.966;16.992;2023-05-07T14:34:50;12;12;8
57049;PMS7003;42935;50.966;16.992;2023-05-07T14:38:10;12;11;8
57049;PMS7003;42935;50.966;16.992;2023-05-07T14:41:32;15;12;9
57049;PMS7003;42935;50.966;16.992;2023-05-07T14:44:52;16;14;10
57049;PMS7003;42935;50.966;16.992;2023-05-07T14:48:40;16;13;10
57049;PMS7003;42935;50.966;16.992;2023-05-07T14:52:01;17;15;11
57049;PMS7003;42935;50.966;16.992;2023-05-07T14:55:21;19;16;10
57049;PMS7003;42935;50.966;16.992;2023-05-07T14:58:41;12;12;8
57049;PMS7003;42935;50.966;16.992;2023-05-07T15:02:28;13;11;8
57049;PMS7003;42935;50.966;16.992;2023-05-07T15:05:52;18;15;10
57049;PMS7003;42935;50.966;16.992;2023-05-07T15:09:12;17;14;10
57049;PMS7003;42935;50.966;16.992;2023-05-07T15:12:33;16;14;11
57049;PMS7003;42935;50.966;16.992;2023-05-07T15:15:53;30;27;17
57049;PMS7003;42935;50.966;16.992;2023-05-07T15:19:10;29;22;16
57049;PMS7003;42935;50.966;16.992;2023-05-07T15:22:32;21;19;13
57049;PMS7003;42935;50.966;16.992;2023-05-07T15:25:52;17;15;10
57049;PMS7003;42935;50.966;16.992;2023-05-07T15:29:44;28;22;14
57049;PMS7003;42935;50.966;16.992;2023-05-07T15:33:04;21;19;14
57049;PMS7003;42935;50.966;16.992;2023-05-07T15:36:27;20;17;11
57049;PMS7003;42935;50.966;16.992;2023-05-07T15:39:49;10;9;8
57049;PMS7003;42935;50.966;16.992;2023-05-07T15:43:09;23;18;12
57049;PMS7003;42935;50.966;16.992;2023-05-07T15:47:02;18;16;11
57049;PMS7003;42935;50.966;16.992;2023-05-07T15:50:21;16;13;10
57049;PMS7003;42935;50.966;16.992;2023-05-07T15:54:16;18;17;11
57049;PMS7003;42935;50.966;16.992;2023-05-07T15:57:38;17;16;11
57049;PMS7003;42935;50.966;16.992;2023-05-07T16:01:32;22;17;11
57049;PMS7003;42935;50.966;16.992;2023-05-07T16:04:52;21;17;13
57049;PMS7003;42935;50.966;16.992;2023-05-07T16:08:12;21;19;13
57049;PMS7003;42935;50.966;16.992;2023-05-07T16:11:59;25;19;14
57049;PMS7003;42935;50.966;16.992;2023-05-07T16:15:18;19;17;13
57049;PMS7003;42935;50.966;16.992;2023-05-07T16:18:38;21;17;12
57049;PMS7003;42935;50.966;16.992;2023-05-07T16:21:55;25;23;16
57049;PMS7003;42935;50.966;16.992;2023-05-07T16:25:16;29;23;17
57049;PMS7003;42935;50.966;16.992;2023-05-07T16:28:36;30;26;18
57049;PMS7003;42935;50.966;16.992;2023-05-07T16:32:02;50;39;27
57049;PMS7003;42935;50.966;16.992;2023-05-07T16:35:53;29;27;19
57049;PMS7003;42935;50.966;16.992;2023-05-07T16:39:17;46;35;24
57049;PMS7003;42935;50.966;16.992;2023-05-07T16:43:09;21;19;12
57049;PMS7003;42935;50.966;16.992;2023-05-07T16:46:28;23;18;14
57049;PMS7003;42935;50.966;16.992;2023-05-07T16:49:53;23;19;15
57049;PMS7003;42935;50.966;16.992;2023-05-07T16:53:09;19;17;13
57049;PMS7003;42935;50.966;16.992;2023-05-07T16:56:30;20;17;13
57049;PMS7003;42935;50.966;16.992;2023-05-07T16:59:48;24;21;15
57049;PMS7003;42935;50.966;16.992;2023-05-07T17:03:07;20;18;15
57049;PMS7003;42935;50.966;16.992;2023-05-07T17:06:23;25;20;14
57049;PMS7003;42935;50.966;16.992;2023-05-07T17:09:44;24;21;15
57049;PMS7003;42935;50.966;16.992;2023-05-07T17:13:04;24;21;13
57049;PMS7003;42935;50.966;16.992;2023-05-07T17:16:24;29;25;18
57049;PMS7003;42935;50.966;16.992;2023-05-07T17:19:43;27;24;15
57049;PMS7003;42935;50.966;16.992;2023-05-07T17:23:33;30;27;18
57049;PMS7003;42935;50.966;16.992;2023-05-07T17:27:02;37;30;19
57049;PMS7003;42935;50.966;16.992;2023-05-07T17:30:22;34;28;19
57049;PMS7003;42935;50.966;16.992;2023-05-07T17:33:47;27;24;17
57049;PMS7003;42935;50.966;16.992;2023-05-07T17:37:08;32;22;17
57049;PMS7003;42935;50.966;16.992;2023-05-07T17:40:32;28;23;16
57049;PMS7003;42935;50.966;16.992;2023-05-07T17:43:53;24;19;12
57049;PMS7003;42935;50.966;16.992;2023-05-07T17:47:25;24;22;15
57049;PMS7003;42935;50.966;16.992;2023-05-07T17:50:45;16;16;11
57049;PMS7003;42935;50.966;16.992;2023-05-07T17:54:04;22;19;13
57049;PMS7003;42935;50.966;16.992;2023-05-07T17:57:20;18;15;11
57049;PMS7003;42935;50.966;16.992;2023-05-07T18:00:40;21;15;12
57049;PMS7003;42935;50.966;16.992;2023-05-07T18:04:04;29;24;16
57049;PMS7003;42935;50.966;16.992;2023-05-07T18:07:28;65;46;27
57049;PMS7003;42935;50.966;16.992;2023-05-07T18:11:19;62;47;28
57049;PMS7003;42935;50.966;16.992;2023-05-07T18:14:48;54;41;25
57049;PMS7003;42935;50.966;16.992;2023-05-07T18:18:08;27;19;14
57049;PMS7003;42935;50.966;16.992;2023-05-07T18:21:27;12;11;7
57049;PMS7003;42935;50.966;16.992;2023-05-07T18:24:47;22;16;11
57049;PMS7003;42935;50.966;16.992;2023-05-07T18:28:12;39;31;21
57049;PMS7003;42935;50.966;16.992;2023-05-07T18:31:29;49;37;24
57049;PMS7003;42935;50.966;16.992;2023-05-07T18:34:53;46;38;25
57049;PMS7003;42935;50.966;16.992;2023-05-07T18:38:09;37;25;16
57049;PMS7003;42935;50.966;16.992;2023-05-07T18:41:29;35;25;17
57049;PMS7003;42935;50.966;16.992;2023-05-07T18:44:49;35;28;19
57049;PMS7003;42935;50.966;16.992;2023-05-07T18:48:13;31;27;16
57049;PMS7003;42935;50.966;16.992;2023-05-07T18:51:34;36;24;16
57049;PMS7003;42935;50.966;16.992;2023-05-07T18:54:58;41;31;19
57049;PMS7003;42935;50.966;16.992;2023-05-07T18:58:22;59;42;26
57049;PMS7003;42935;50.966;16.992;2023-05-07T19:01:49;40;30;20
57049;PMS7003;42935;50.966;16.992;2023-05-07T19:05:13;45;34;22
57049;PMS7003;42935;50.966;16.992;2023-05-07T19:08:39;45;32;19
57049;PMS7003;42935;50.966;16.992;2023-05-07T19:12:29;33;27;18
57049;PMS7003;42935;50.966;16.992;2023-05-07T19:15:49;30;20;14
57049;PMS7003;42935;50.966;16.992;2023-05-07T19:19:11;24;21;15
57049;PMS7003;42935;50.966;16.992;2023-05-07T19:22:31;26;20;15
57049;PMS7003;42935;50.966;16.992;2023-05-07T19:25:51;19;14;9
57049;PMS7003;42935;50.966;16.992;2023-05-07T19:29:11;16;15;10
57049;PMS7003;42935;50.966;16.992;2023-05-07T19:32:27;21;15;11
57049;PMS7003;42935;50.966;16.992;2023-05-07T19:35:45;21;17;11
57049;PMS7003;42935;50.966;16.992;2023-05-07T19:39:09;19;16;10
57049;PMS7003;42935;50.966;16.992;2023-05-07T19:42:29;22;20;13
57049;PMS7003;42935;50.966;16.992;2023-05-07T19:45:53;31;26;19
57049;PMS7003;42935;50.966;16.992;2023-05-07T19:49:13;40;28;21
57049;PMS7003;42935;50.966;16.992;2023-05-07T19:52:32;22;17;12
57049;PMS7003;42935;50.966;16.992;2023-05-07T19:59:26;24;19;13
57049;PMS7003;42935;50.966;16.992;2023-05-07T20:02:46;24;19;14
57049;PMS7003;42935;50.966;16.992;2023-05-07T20:06:08;25;21;11
57049;PMS7003;42935;50.966;16.992;2023-05-07T20:09:32;35;29;20
57049;PMS7003;42935;50.966;16.992;2023-05-07T20:13:00;27;19;12
57049;PMS7003;42935;50.966;16.992;2023-05-07T20:16:29;25;20;13
57049;PMS7003;42935;50.966;16.992;2023-05-07T20:19:48;25;20;13
57049;PMS7003;42935;50.966;16.992;2023-05-07T20:23:12;23;20;14
57049;PMS7003;42935;50.966;16.992;2023-05-07T20:26:32;28;16;11
57049;PMS7003;42935;50.966;16.992;2023-05-07T20:29:47;10;10;8
57049;PMS7003;42935;50.966;16.992;2023-05-07T20:33:06;12;8;6
57049;PMS7003;42935;50.966;16.992;2023-05-07T20:36:30;15;12;8
57049;PMS7003;42935;50.966;16.992;2023-05-07T20:39:54;16;10;8
57049;PMS7003;42935;50.966;16.992;2023-05-07T20:43:13;18;12;9
57049;PMS7003;42935;50.966;16.992;2023-05-07T20:46:33;11;10;7
57049;PMS7003;42935;50.966;16.992;2023-05-07T20:49:59;20;13;10
57049;PMS7003;42935;50.966;16.992;2023-05-07T20:53:22;17;13;10
57049;PMS7003;42935;50.966;16.992;2023-05-07T20:56:42;11;10;8
57049;PMS7003;42935;50.966;16.992;2023-05-07T21:00:02;16;12;9
57049;PMS7003;42935;50.966;16.992;2023-05-07T21:03:24;17;13;9
57049;PMS7003;42935;50.966;16.992;2023-05-07T21:06:44;16;13;9
57049;PMS7003;42935;50.966;16.992;2023-05-07T21:10:04;22;16;11
57049;PMS7003;42935;50.966;16.992;2023-05-07T21:13:24;14;11;8
57049;PMS7003;42935;50.966;16.992;2023-05-07T21:16:51;18;14;9
57049;PMS7003;42935;50.966;16.992;2023-05-07T21:20:11;16;11;8
57049;PMS7003;42935;50.966;16.992;2023-05-07T21:23:32;18;11;9
57049;PMS7003;42935;50.966;16.992;2023-05-07T21:26:52;16;13;9
57049;PMS7003;42935;50.966;16.992;2023-05-07T21:30:13;15;12;7
57049;PMS7003;42935;50.966;16.992;2023-05-07T21:33:37;15;10;8
57049;PMS7003;42935;50.966;16.992;2023-05-07T21:36:59;9;8;6
57049;PMS7003;42935;50.966;16.992;2023-05-07T21:40:17;8;7;6
57049;PMS7003;42935;50.966;16.992;2023-05-07T21:43:37;10;8;7
57049;PMS7003;42935;50.966;16.992;2023-05-07T21:47:01;10;9;6
57049;PMS7003;42935;50.966;16.992;2023-05-07T21:50:22;13;9;6
57049;PMS7003;42935;50.966;16.992;2023-05-07T21:53:43;11;10;7
57049;PMS7003;42935;50.966;16.992;2023-05-07T21:57:07;11;8;6
57049;PMS7003;42935;50.966;16.992;2023-05-07T22:00:28;13;11;8
57049;PMS7003;42935;50.966;16.992;2023-05-07T22:03:50;12;10;7
57049;PMS7003;42935;50.966;16.992;2023-05-07T22:07:14;12;10;8
57049;PMS7003;42935;50.966;16.992;2023-05-07T22:10:35;11;10;8
57049;PMS7003;42935;50.966;16.992;2023-05-07T22:13:56;10;9;6